Tropical Cyclones
[Index]
Season 2017-2018 Tropical Cyclone KELVIN Track Map
Season 2017-2018 Summaries (Operational Data): [AU] [SIO] [SPAC] [SH]
<<- Previous TC | 2017-2018 Season | Next TC ->>

click for intensity scale information  Lat/long Grid: Show Hide

 Date Labels: Show Hide

Operational Tropical Cyclone Data : JTWC Advisories

Name: KELVIN
Number: 1810

12 Feb 2018 12:00 UTC to 22 Feb 2018 12:00 UTC

    date/time    lat    long     hPa   cat  kts
2018-02-12 12   10.6   134.3    1007         15          
2018-02-12 18   10.8   134.1    1007         15          
2018-02-13 00   11.0   133.8    1007         15          
2018-02-13 06   11.3   133.4    1010         15          
2018-02-13 12   11.9   133.0    1008         15          
2018-02-13 18   13.1   131.5    1007         20          
2018-02-14 00   13.4   130.0    1007         20          
2018-02-14 06   13.9   129.2    1003         20          
2018-02-14 12   14.3   128.2    1008         20          
2018-02-14 18   14.7   127.0    1005         25          
2018-02-15 00   15.2   126.1    1005         25          
2018-02-15 06   16.2   125.6    1004         20          
2018-02-15 12   16.9   124.7    1002         25          
2018-02-15 18   17.2   123.1    1005         25          
2018-02-16 00   17.3   122.2    1006         25          
2018-02-16 06   18.0   121.4    1004         30          
2018-02-16 12   18.4   121.0    1000    1    35          
2018-02-16 18   18.5   120.6     998    1    35          
2018-02-17 00   18.8   120.2     993    1    40          
2018-02-17 06   19.0   120.4     994    1    40          
2018-02-17 12   19.2   120.7     991    1    45          
2018-02-17 18   19.2   121.0     978    2    60          
2018-02-18 00   19.2   121.6     970    3    80          
2018-02-18 06   19.8   122.0     963    3    80          
2018-02-18 12   20.4   122.4     967    3    75          
2018-02-18 18   21.0   122.6     970    3    70          
2018-02-19 00   21.5   123.0     978    2    60          
2018-02-19 06   22.1   123.3     982    2    55          
2018-02-19 12   22.7   123.4     985    2    50          
2018-02-19 18   23.2   123.5     985    2    50          
2018-02-20 00   23.8   123.8     985    2    50          
2018-02-20 06   24.4   124.4     989    1    45          
2018-02-20 12   25.0   124.6     993    1    40          
2018-02-20 18   26.1   124.8    1000         30          
2018-02-21 00   27.2   125.1    1000         25          
2018-02-21 06   28.5   125.9    1004         25          
2018-02-21 12   29.7   127.6    1004         25          
2018-02-21 18   30.6   128.8     997         25          
2018-02-22 00   31.6   130.1    1004         25          
2018-02-22 06   32.6   131.5    1004         25          
2018-02-22 12   33.3   132.9    1004         25          
Winds are 10-min average.

Tropical cyclone tracks developed by Michael Bath using operational warnings and advisories and Google Maps.


Document: tropical_cyclone_kelvin.htm
Updated: 17 June 2020
[Australian Severe Weather index] [Copyright Notice] [Email Contacts] [Search This Site] [Privacy Policy]


Main Index Home Page Stock Weather Photos Extreme Storms Discussion Storm News and Storm Chasing Reports Tropical Cyclones / Hurricanes / Typhoons Weather Data and Links Wild Fires / Bushfires Weather Observation Techniques Weather Picture Catalogue Tornado Pictures and Reports Stock Video Footage and DVDs for sale